Bodega Marine Reserve, California Weather observations

Data are for 10 minute period ending at time listed.
 Day   Time   Solar   Ave.   Ave.  Ave.  Vector  Max.   Baro.   Total    
  of    of     Rad.   Air    Rel.  Wind   Wind   Wind  Press.  Precip.   
Year   Day            Temp.  Hum.  Speed  Dir.   Gust                    
2016   (PST)  Kw/m2    F      %     mph   deg.    mph    mb.     in.     
-------------------------------------------------------------------------
 148   16:10   0.51   59.1    66   16.9   303    21.9   1009.8    0.00 
 148   16:20   0.65   59.1    66   18.6   304    23.8   1009.8    0.00 
 148   16:30   0.42   59.0    66   20.0   301    25.7   1009.5    0.00 
 148   16:40   0.60   58.8    66   19.9   302    24.5   1009.5    0.00 
 148   16:50   0.58   59.1    65   18.8   303    24.0   1009.5    0.00 
 148   17:00   0.38   59.4    64   18.5   305    22.7   1009.1    0.00 
 148   17:10   0.10   59.3    64   18.6   305    23.5   1009.1    0.00 
 148   17:20   0.47   59.1    64   20.3   309    25.1   1009.1    0.00 
 148   17:30   0.47   58.5    64   18.8   311    24.3   1009.1    0.00 
 148   17:40   0.44   58.1    66   20.2   313    26.2   1008.8    0.00 
 148   17:50   0.41   57.6    67   21.8   310    26.7   1008.8    0.00 
 148   18:00   0.38   57.3    67   21.0   311    27.2   1008.5    0.00 
 148   18:10   0.35   57.3    67   19.3   312    25.9   1008.5    0.00 
 148   18:20   0.31   57.2    67   18.8   306    25.4   1008.5    0.00 
 148   18:30   0.26   56.9    68   18.2   308    23.3   1008.5    0.00 
 148   18:40   0.22   56.6    69   16.9   312    20.8   1008.1    0.00 
 148   18:50   0.21   56.5    68   19.0   308    24.3   1008.1    0.00 
 148   19:00   0.19   56.3    68   22.1   305    29.2   1007.8    0.00 
 148   19:10   0.17   56.1    69   21.1   306    26.0   1007.8    0.00 
 148   19:20   0.13   56.0    69   19.0   310    24.0   1007.8    0.00 
 148   19:30   0.10   55.7    69   20.2   312    25.9   1007.8    0.00 
 148   19:40   0.05   55.3    70   19.9   314    24.3   1007.8    0.00 
 148   19:50   0.03   54.9    71   20.2   312    25.7   1007.8    0.00 
 148   20:00   0.01   55.0    70   19.3   324    25.9   1007.8    0.00 
 148   20:10   0.01   55.0    69   18.7   327    23.7   1007.8    0.00 
 148   20:20   0.00   54.8    70   20.7   323    27.4   1007.5    0.00 
 148   20:30   0.00   54.4    71   21.6   321    27.5   1007.5    0.00 
 148   20:40   0.00   54.0    72   18.6   322    26.7   1007.8    0.00 
 148   20:50   0.00   53.8    72   19.6   317    25.6   1007.8    0.00 
 148   21:00   0.00   53.7    72   21.8   309    26.7   1007.5    0.00 
 148   21:10   0.00   53.5    73   19.6   310    26.2   1007.8    0.00 
 148   21:20   0.00   53.2    74   21.6   308    25.3   1007.8    0.00 
 148   21:30   0.00   53.0    74   21.0   310    26.0   1007.8    0.00 
 148   21:40   0.00   52.9    74   19.7   313    25.6   1007.8    0.00 
 148   21:50   0.00   52.9    74   19.0   314    24.4   1007.8    0.00 
 148   22:00   0.00   52.7    75   18.5   315    23.7   1008.1    0.00 
 148   22:10   0.00   52.6    75   17.6   315    21.8   1008.1    0.00 
 148   22:20   0.00   52.5    75   16.9   312    21.7   1008.1    0.00 
 148   22:30   0.00   52.3    76   15.6   310    20.7   1008.1    0.00 
 148   22:40   0.00   52.4    75   11.4   317    17.8   1008.1    0.00 
 148   22:50   0.00   52.6    74    7.9   320    13.2   1008.5    0.00 
 148   23:00   0.00   52.5    74    9.8   313    16.0   1008.5    0.00 
 148   23:10   0.00   52.7    73   15.4   311    18.6   1008.1    0.00 
 148   23:20   0.00   53.0    72   18.5   308    24.4   1007.8    0.00 
 148   23:30   0.00   53.2    71   15.7   312    20.2   1008.1    0.00 
 148   23:40   0.00   53.1    72   17.8   310    23.3   1007.8    0.00 
 148   23:50   0.00   53.0    72   16.4   309    20.8   1007.8    0.00 
 149    0:00   0.00   52.9    72   18.1   308    23.5   1007.8    0.00 
 149    0:10   0.00   52.9    72   18.0   308    22.0   1007.8    0.00 
 149    0:20   0.00   52.6    74   17.2   311    24.0   1007.8    0.00 
 149    0:30   0.00   52.3    75   14.9   314    19.6   1007.8    0.00 
 149    0:40   0.00   51.9    76   15.2   314    19.7   1007.8    0.00 
 149    0:50   0.00   51.5    78   16.3   309    20.4   1007.8    0.00 
 149    1:00   0.00   51.5    78   18.0   302    22.5   1007.8    0.00 
 149    1:10   0.00   51.5    78   18.0   301    24.0   1007.5    0.00 
 149    1:20   0.00   51.4    78   18.4   302    23.5   1007.5    0.00 
 149    1:30   0.00   51.2    79   18.4   303    23.7   1007.5    0.00 
 149    1:40   0.00   51.0    80   18.3   305    23.1   1007.5    0.00 
 149    1:50   0.00   51.0    81   17.6   303    22.7   1007.1    0.00 
 149    2:00   0.00   50.9    81   17.2   303    21.9   1007.1    0.00 
 149    2:10   0.00   50.9    81   17.0   304    22.3   1007.1    0.00 
 149    2:20   0.00   50.8    81   17.3   304    21.6   1006.8    0.00 
 149    2:30   0.00   50.7    82   15.6   302    19.8   1006.8    0.00 
 149    2:40   0.00   50.6    83   14.1   302    17.9   1006.8    0.00 
 149    2:50   0.00   50.6    83   12.4   303    16.1   1006.8    0.00 
 149    3:00   0.00   50.6    83    9.6   316    14.9   1006.8    0.00 
 149    3:10   0.00   50.5    83    7.5   303    12.1   1006.8    0.00 
 149    3:20   0.00   50.3    84    7.9   299    12.8   1006.8    0.00 
 149    3:30   0.00   50.2    84    7.5   300    11.2   1006.8    0.00 
 149    3:40   0.00   50.2    84    9.5   299    13.7   1006.8    0.00 
 149    3:50   0.00   50.2    84    7.5   308    11.8   1006.8    0.00 
 149    4:00   0.00   50.1    84    4.7   301     8.6   1006.4    0.00 
 149    4:10   0.00   49.8    85    5.3   294     8.1   1006.4    0.00 
 149    4:20   0.00   49.5    85    6.6   290    10.0   1006.4    0.00 
 149    4:30   0.00   49.5    86    6.1   302     9.1   1006.8    0.00 
 149    4:40   0.00   49.5    86    6.0   312     9.6   1006.8    0.00 
 149    4:50   0.00   49.5    86    4.5   322     6.5   1006.8    0.00 
 149    5:00   0.00   48.7    86    3.9   310     4.7   1006.8    0.00 
 149    5:10   100.00  99999.0   99999  99999.0   99999   99999.0   99999.0   99999.00 
 149    5:20   100.00  99999.0   99999  99999.0   99999   99999.0   99999.0   99999.00 
 149    5:30   100.00  99999.0   99999  99999.0   99999   99999.0   99999.0   99999.00 
 149    5:40   100.00  99999.0   99999  99999.0   99999   99999.0   99999.0   99999.00 
 149    5:50   0.00   44.2   -642   23.4    23    23.4   218626.0   23.56 
 149    6:00   0.00   48.1    89    4.9   307     5.4   1007.1    0.00 
 149    6:10   0.01   47.0    89    5.5   312     6.9   1007.1    0.00 
 149    6:20   0.02   47.5    90    6.2   311     9.3   1007.1    0.00 
 149    6:30   0.04   48.3    90    6.5   304     8.6   1007.1    0.00 
 149    6:40   0.06   49.1    90    7.0   304    10.2   1007.5    0.00 
 149    6:50   0.07   49.7    90    7.9   305    11.8   1007.5    0.00 
 149    7:00   0.10   50.3    89    9.6   304    13.4   1007.5    0.00 
 149    7:10   0.14   50.8    88    8.9   308    12.8   1007.5    0.00 
 149    7:20   0.16   51.3    87    9.8   310    13.9   1007.5    0.00 
 149    7:30   0.18   51.6    87    8.1   309    12.4   1007.5    0.00 
 149    7:40   0.19   51.9    86    7.7   307    10.0   1007.8    0.00 
 149    7:50   0.23   52.4    85    7.6   303    10.4   1007.8    0.00 
 149    8:00   0.26   52.8    84    7.2   304     9.0   1007.8    0.00 
 149    8:10   0.29   53.4    83    6.5   304     8.5   1007.8    0.00 
 149    8:20   0.31   54.0    82    4.9   297     7.4   1008.1    0.00 
 149    8:30   0.33   55.0    80    2.2   246     5.3   1008.1    0.00 
 149    8:40   0.40   56.5    77    2.1   207     5.3   1008.5    0.00 
 149    8:50   0.44   56.3    76    2.4   194     4.7   1008.5    0.00 
 149    9:00   0.47   55.9    75    4.1   137     6.1   1008.5    0.00 
 149    9:10   0.48   55.8    75    4.7   138     6.2   1008.8    0.00 
 149    9:20   0.51   56.2    74    3.9   138     6.3   1008.8    0.00 
 149    9:30   0.55   56.4    73    3.4   139     5.3   1008.8    0.00 
 149    9:40   0.58   56.6    73    2.5   153     4.2   1008.8    0.00 
 149    9:50   0.62   57.4    72    1.7   136     4.2   1008.8    0.00 
 149   10:00   0.65   57.8    69    2.3   140     4.0   1008.8    0.00 
 149   10:10   0.67   57.9    71    3.0   132     5.7   1008.8    0.00 
 149   10:20   0.70   57.9    71    4.0   136     5.6   1008.8    0.00 
 149   10:30   0.72   58.5    71    2.7   151     5.8   1008.8    0.00 
 149   10:40   0.74   59.9    69    2.3   272     5.6   1008.8    0.00 
 149   10:50   0.76   59.8    67    5.2   130     7.5   1008.8    0.00 
 149   11:00   0.78   58.1    70    5.0   129     7.5   1008.8    0.00 
 149   11:10   0.80   58.1    70    5.2   132     7.2   1008.8    0.00 
 149   11:20   0.82   57.9    71    5.1   130     7.2   1009.1    0.00 
 149   11:30   0.84   58.2    70    5.9   127     7.7   1009.1    0.00 
 149   11:40   0.85   58.4    70    5.5   124     8.4   1009.1    0.00 
 149   11:50   0.86   58.7    70    4.9   125     7.7   1009.1    0.00 
 149   12:00   0.88   59.7    69    4.7   126     7.1   1009.1    0.00 
 149   12:10   0.89   59.3    70    5.3   128     7.5   1009.1    0.00 
 149   12:20   0.90   59.9    69    5.1   122     8.0   1009.1    0.00 
 149   12:30   0.90   60.0    68    5.1   130     7.6   1009.1    0.00 
 149   12:40   0.91   59.6    69    5.0   133     7.3   1009.1    0.00 
 149   12:50   0.92   59.7    69    5.0   134     7.2   1009.1    0.00 
 149   13:00   0.93   60.2    68    5.3   133     6.9   1009.1    0.00 
 149   13:10   0.93   60.5    67    5.4   128     7.7   1009.1    0.00 
 149   13:20   0.94   62.6    62    3.9   238     7.8   1009.1    0.00 
 149   13:30   0.95   63.7    59    2.7   176     7.3   1009.1    0.00 
 149   13:40   0.91   64.2    57    2.9   192     7.8   1009.1    0.00 
 149   13:50   0.93   62.7    59    5.9   269     8.6   1009.1    0.00 
 149   14:00   0.92   61.1    63    6.5   266     8.8   1009.1    0.00 
 149   14:10   0.93   61.8    61    5.0   279     7.6   1009.1    0.00 
 149   14:20   0.96   63.3    61    5.8   279     8.3   1009.1    0.00 
 149   14:30   0.87   62.2    62    7.0   270    10.0   1009.1    0.00 
 149   14:40   0.83   61.4    68    8.5   276    10.5   1008.8    0.00 
 149   14:50   0.56   61.6    67    8.1   297    10.7   1008.8    0.00 
 149   15:00   0.56   61.5    66    8.7   296    11.3   1008.8    0.00 
 149   15:10   0.73   60.4    68    8.8   303    11.4   1008.8    0.00 
 149   15:20   0.43   59.9    68   10.5   301    12.6   1008.8    0.00 
 149   15:30   0.16   59.6    68   11.2   300    13.2   1008.8    0.00 
 149   15:40   0.21   59.2    70   11.9   302    15.3   1008.8    0.00 
 149   15:50   0.29   59.7    69   11.9   306    15.1   1008.5    0.00 
 149   16:00   0.40   59.5    69   11.4   308    15.8   1008.5    0.00 

Return to Bodega Marine Reserve graphs page.


Western Regional Climate Center,wrcc@dri.edu